Time;durP1;ratioP1;P1;durP2;ratioP2;P2;SDS_P1;SDS_P2;PMS_P1;PMS_P2;Temp;Humidity;BMP_temperature;BMP_pressure;BME280_temperature;BME280_humidity;BME280_pressure;Samples;Min_cycle;Max_cycle;Signal;HPM_P1;HPM_P2
2022/08/31 00:06:06;;;;;;;2.40;1.30;;;17.50;99.90;;;;;;5069071;28;20131;-69
2022/08/31 00:08:33;;;;;;;4.22;1.35;;;17.40;99.90;;;;;;5059300;28;20124;-69
2022/08/31 00:10:59;;;;;;;4.00;1.30;;;17.40;99.90;;;;;;5066608;28;20047;-69
2022/08/31 00:13:26;;;;;;;4.10;1.35;;;17.30;99.90;;;;;;5038509;28;20041;-69
2022/08/31 00:15:53;;;;;;;1.90;1.33;;;17.50;99.90;;;;;;5053616;28;20044;-69
2022/08/31 00:18:20;;;;;;;2.75;1.27;;;17.30;99.90;;;;;;5055116;28;20096;-69
2022/08/31 00:20:46;;;;;;;4.20;1.35;;;17.60;99.90;;;;;;5051765;28;20049;-69
2022/08/31 00:23:14;;;;;;;2.95;1.25;;;17.30;99.90;;;;;;5051993;28;20447;-68
2022/08/31 00:25:42;;;;;;;1.38;1.10;;;17.20;99.90;;;;;;5052937;28;20037;-69
2022/08/31 00:28:10;;;;;;;3.25;1.30;;;17.20;99.90;;;;;;5059670;28;20052;-69
2022/08/31 00:30:35;;;;;;;4.85;1.50;;;17.20;99.90;;;;;;5052361;28;20037;-69
2022/08/31 00:33:02;;;;;;;2.00;1.45;;;17.70;99.90;;;;;;5052519;28;20404;-69
2022/08/31 00:35:29;;;;;;;2.08;1.20;;;17.10;99.90;;;;;;5052870;28;20052;-69
2022/08/31 00:37:55;;;;;;;3.25;1.38;;;17.10;99.90;;;;;;5052012;28;20055;-69
2022/08/31 00:40:21;;;;;;;6.65;1.58;;;17.00;99.90;;;;;;5051472;28;20044;-69
2022/08/31 00:42:47;;;;;;;3.72;1.35;;;17.00;99.90;;;;;;5051064;28;20135;-69
2022/08/31 00:45:13;;;;;;;2.35;1.23;;;16.90;99.90;;;;;;5051303;28;20151;-69
2022/08/31 00:47:39;;;;;;;3.78;1.42;;;17.00;99.90;;;;;;5034281;28;20577;-68
2022/08/31 00:50:09;;;;;;;3.55;1.30;;;17.10;99.90;;;;;;5068290;28;20470;-69
2022/08/31 00:52:41;;;;;;;1.70;1.13;;;16.90;99.90;;;;;;5054491;28;20103;-69
2022/08/31 00:55:12;;;;;;;2.42;1.27;;;16.80;99.90;;;;;;5060078;28;20045;-69
2022/08/31 00:57:43;;;;;;;2.45;1.48;;;16.80;99.90;;;;;;5051636;28;20158;-69
2022/08/31 01:00:13;;;;;;;2.67;1.35;;;16.80;99.90;;;;;;5036420;28;20055;-69
2022/08/31 01:02:39;;;;;;;3.20;1.35;;;16.80;99.90;;;;;;5037900;28;20076;-69
2022/08/31 01:05:05;;;;;;;2.97;1.35;;;16.70;99.90;;;;;;5041069;28;20051;-69
2022/08/31 01:07:31;;;;;;;2.97;1.40;;;16.70;99.90;;;;;;5055762;28;20041;-69
2022/08/31 01:09:58;;;;;;;2.35;1.30;;;16.70;99.90;;;;;;5064816;28;20113;-69
2022/08/31 01:12:26;;;;;;;1.92;1.20;;;17.00;99.90;;;;;;5058132;28;20052;-69
2022/08/31 01:14:51;;;;;;;1.55;1.20;;;16.60;99.90;;;;;;5067280;28;20041;-69
2022/08/31 01:17:19;;;;;;;2.40;1.35;;;16.60;99.90;;;;;;5056344;28;20068;-69
2022/08/31 01:20:00;;;;;;;1.67;1.10;;;16.50;99.90;;;;;;5051977;28;20045;-69
2022/08/31 01:22:38;;;;;;;3.97;1.50;;;16.50;99.90;;;;;;5036311;28;20119;-69
2022/08/31 01:25:05;;;;;;;2.15;1.20;;;16.40;99.90;;;;;;5052728;28;20044;-69
2022/08/31 01:27:34;;;;;;;3.60;1.35;;;16.40;99.90;;;;;;5050510;28;20167;-69
2022/08/31 01:30:05;;;;;;;4.10;1.40;;;16.40;99.90;;;;;;5058456;28;20060;-69
2022/08/31 01:32:30;;;;;;;2.83;1.30;;;16.30;99.90;;;;;;5047819;28;20047;-69
2022/08/31 01:34:56;;;;;;;1.33;1.20;;;16.30;99.90;;;;;;5047795;28;20461;-69
2022/08/31 01:37:22;;;;;;;1.77;1.20;;;16.80;99.90;;;;;;5051493;28;20041;-69
2022/08/31 01:39:49;;;;;;;4.55;1.27;;;16.20;99.90;;;;;;5060398;28;20067;-69
2022/08/31 01:42:16;;;;;;;2.42;1.10;;;16.20;99.90;;;;;;5053854;28;20057;-69
2022/08/31 01:44:42;;;;;;;2.28;1.20;;;16.30;99.90;;;;;;5052929;28;20111;-69
2022/08/31 01:47:07;;;;;;;3.35;1.33;;;16.20;99.90;;;;;;5069789;28;20048;-68
2022/08/31 01:49:33;;;;;;;1.83;1.15;;;16.10;99.90;;;;;;5061287;28;20041;-69
2022/08/31 01:51:59;;;;;;;2.80;1.40;;;16.10;99.90;;;;;;5061059;28;20052;-69
2022/08/31 01:54:26;;;;;;;2.33;1.13;;;16.10;99.90;;;;;;5056855;28;20040;-69
2022/08/31 01:56:53;;;;;;;1.88;1.20;;;16.10;99.90;;;;;;5062589;28;20106;-69
2022/08/31 01:59:20;;;;;;;1.95;1.00;;;16.00;99.90;;;;;;5064417;28;20063;-69
2022/08/31 02:01:49;;;;;;;2.05;1.23;;;16.00;99.90;;;;;;5036231;28;20037;-70
2022/08/31 02:04:16;;;;;;;3.25;1.20;;;16.30;99.90;;;;;;5054437;28;20045;-69
2022/08/31 02:06:46;;;;;;;2.15;1.10;;;16.10;99.90;;;;;;5054354;28;20115;-69
2022/08/31 02:09:13;;;;;;;4.32;1.23;;;16.00;99.90;;;;;;5070308;28;20070;-69
2022/08/31 02:11:39;;;;;;;2.42;1.30;;;16.00;99.90;;;;;;5064087;28;20040;-69
2022/08/31 02:14:06;;;;;;;2.30;1.08;;;16.00;99.90;;;;;;5057140;28;20036;-69
2022/08/31 02:16:32;;;;;;;2.28;1.13;;;16.00;99.90;;;;;;5074815;28;20127;-69
2022/08/31 02:18:57;;;;;;;1.75;1.20;;;15.90;99.90;;;;;;5075054;28;20076;-70
2022/08/31 02:21:23;;;;;;;1.60;1.15;;;15.90;99.90;;;;;;5055515;28;20135;-69
2022/08/31 02:23:49;;;;;;;1.20;1.10;;;15.90;99.90;;;;;;5044146;28;20048;-68
2022/08/31 02:26:14;;;;;;;3.20;1.25;;;16.20;99.90;;;;;;5057128;28;20048;-68
2022/08/31 02:28:40;;;;;;;1.70;1.20;;;15.80;99.90;;;;;;5040469;28;20053;-69
2022/08/31 02:31:06;;;;;;;1.45;1.30;;;16.20;99.90;;;;;;5054135;28;20064;-69
2022/08/31 02:33:32;;;;;;;3.70;1.30;;;15.80;99.90;;;;;;5064122;28;20040;-69
2022/08/31 02:35:57;;;;;;;1.60;1.20;;;15.90;99.90;;;;;;5061855;28;20454;-69
2022/08/31 02:38:23;;;;;;;2.38;1.17;;;15.80;99.90;;;;;;5054905;28;20040;-69
2022/08/31 02:40:50;;;;;;;3.20;1.08;;;16.30;99.90;;;;;;5054972;28;20084;-69
2022/08/31 02:43:16;;;;;;;1.60;1.25;;;15.70;99.90;;;;;;5037857;28;20508;-69
2022/08/31 02:45:42;;;;;;;2.22;1.27;;;15.90;99.90;;;;;;5054275;28;20041;-69
2022/08/31 02:48:09;;;;;;;1.73;1.23;;;15.70;99.90;;;;;;5060703;28;20040;-69
2022/08/31 02:50:43;;;;;;;2.20;1.13;;;15.60;99.90;;;;;;5062731;28;20458;-68
2022/08/31 02:53:10;;;;;;;2.47;1.27;;;15.60;99.90;;;;;;5049728;28;20345;-69
2022/08/31 02:55:36;;;;;;;2.45;1.30;;;15.60;99.90;;;;;;5052457;28;20068;-69
2022/08/31 02:58:03;;;;;;;2.47;1.10;;;15.70;99.90;;;;;;5054697;28;20069;-69
2022/08/31 03:00:29;;;;;;;2.67;1.20;;;15.50;99.90;;;;;;5055460;28;20041;-69
2022/08/31 03:02:55;;;;;;;1.45;1.20;;;15.50;99.90;;;;;;5055640;28;20515;-69
2022/08/31 03:05:21;;;;;;;1.48;1.10;;;15.50;99.90;;;;;;5054255;28;20045;-69
2022/08/31 03:07:48;;;;;;;2.42;1.20;;;15.50;99.90;;;;;;5053289;28;20044;-68
2022/08/31 03:10:15;;;;;;;3.55;1.20;;;15.50;99.90;;;;;;5035991;28;20490;-69
2022/08/31 03:12:41;;;;;;;2.83;1.38;;;16.20;99.90;;;;;;5052801;28;20041;-69
2022/08/31 03:15:08;;;;;;;1.85;1.20;;;15.50;99.90;;;;;;5074689;28;20043;-69
2022/08/31 03:17:34;;;;;;;1.77;1.23;;;15.40;99.90;;;;;;5053721;28;20115;-69
2022/08/31 03:20:04;;;;;;;1.60;1.30;;;15.50;99.90;;;;;;5053160;28;20146;-69
2022/08/31 03:22:31;;;;;;;2.38;1.20;;;15.40;99.90;;;;;;5035376;28;20040;-69
2022/08/31 03:24:56;;;;;;;1.83;1.40;;;15.40;99.90;;;;;;5038591;28;20083;-69
2022/08/31 03:27:23;;;;;;;2.67;1.23;;;15.40;99.90;;;;;;5037916;28;20033;-69
2022/08/31 03:29:50;;;;;;;1.55;1.10;;;15.30;99.90;;;;;;5056096;28;20124;-69
2022/08/31 03:32:15;;;;;;;2.40;1.20;;;15.30;99.90;;;;;;5038838;28;20114;-69
2022/08/31 03:34:41;;;;;;;1.55;1.30;;;15.30;99.90;;;;;;5053788;28;20101;-69
2022/08/31 03:37:07;;;;;;;2.58;1.20;;;15.30;99.90;;;;;;5059336;28;20055;-69
2022/08/31 03:39:32;;;;;;;1.45;1.30;;;15.30;99.90;;;;;;5064801;28;20036;-70
2022/08/31 03:41:58;;;;;;;2.08;1.40;;;15.20;99.90;;;;;;5053370;28;20053;-69
2022/08/31 03:44:24;;;;;;;2.75;1.20;;;15.20;99.90;;;;;;5054607;28;20051;-69
2022/08/31 03:46:50;;;;;;;4.00;1.52;;;15.20;99.90;;;;;;5053292;28;20049;-69
2022/08/31 03:49:19;;;;;;;4.40;1.50;;;15.20;99.90;;;;;;5047944;28;20041;-69
2022/08/31 03:51:45;;;;;;;3.53;1.48;;;15.30;99.90;;;;;;5055625;28;20423;-69
2022/08/31 03:54:11;;;;;;;1.75;1.20;;;15.10;99.90;;;;;;5064198;28;20056;-70
2022/08/31 03:56:37;;;;;;;1.55;1.30;;;15.10;99.90;;;;;;5053299;28;20079;-69
2022/08/31 03:59:03;;;;;;;2.25;1.30;;;15.10;99.90;;;;;;5039289;28;20052;-69
2022/08/31 04:01:29;;;;;;;2.72;1.40;;;15.10;99.90;;;;;;5052526;28;20049;-69
2022/08/31 04:03:55;;;;;;;3.20;1.30;;;15.10;99.90;;;;;;5053062;28;20388;-69
2022/08/31 04:06:21;;;;;;;1.98;1.23;;;15.30;99.90;;;;;;5055990;28;20028;-68
2022/08/31 04:08:47;;;;;;;5.15;1.50;;;15.50;99.90;;;;;;5052359;28;20041;-69
2022/08/31 04:11:16;;;;;;;4.00;1.40;;;15.00;99.90;;;;;;5060556;28;20382;-69
2022/08/31 04:13:42;;;;;;;3.22;1.33;;;15.10;99.90;;;;;;5050919;28;20124;-69
2022/08/31 04:16:10;;;;;;;3.22;1.40;;;15.00;99.90;;;;;;5053026;28;20131;-69
2022/08/31 04:18:40;;;;;;;2.05;1.48;;;15.70;99.90;;;;;;5038660;28;20080;-69
2022/08/31 04:21:14;;;;;;;2.55;1.50;;;15.00;99.90;;;;;;5026441;28;20398;-69
2022/08/31 04:23:40;;;;;;;2.95;1.70;;;15.00;99.90;;;;;;5062362;28;20041;-69
2022/08/31 04:26:13;;;;;;;2.08;1.50;;;15.00;99.90;;;;;;5067014;28;20044;-69
2022/08/31 04:28:39;;;;;;;2.97;1.45;;;15.20;99.90;;;;;;5035914;28;20044;-69
2022/08/31 04:31:08;;;;;;;3.47;1.50;;;14.90;99.90;;;;;;5066567;28;20047;-69
2022/08/31 04:33:38;;;;;;;1.50;1.40;;;14.90;99.90;;;;;;5052183;28;20055;-69
2022/08/31 04:36:09;;;;;;;2.75;1.50;;;14.90;99.90;;;;;;5069540;28;20045;-69
2022/08/31 04:38:35;;;;;;;3.00;1.50;;;14.90;99.90;;;;;;5054307;28;20036;-69
2022/08/31 04:41:08;;;;;;;2.42;1.70;;;14.80;99.90;;;;;;5067397;28;20143;-69
2022/08/31 04:43:35;;;;;;;3.10;1.70;;;15.00;99.90;;;;;;5071520;28;20105;-69
2022/08/31 04:46:04;;;;;;;3.08;1.55;;;14.80;99.90;;;;;;5041877;28;20052;-69
2022/08/31 04:48:31;;;;;;;3.53;1.50;;;14.80;99.90;;;;;;5072035;28;20042;-69
2022/08/31 04:51:10;;;;;;;4.35;1.75;;;14.80;99.90;;;;;;5071372;28;20040;-69
2022/08/31 04:53:37;;;;;;;3.80;1.60;;;14.80;99.90;;;;;;5057491;28;20135;-69
2022/08/31 04:56:06;;;;;;;4.30;1.88;;;14.80;99.90;;;;;;5054172;28;20377;-69
2022/08/31 04:58:32;;;;;;;2.50;1.48;;;14.80;99.90;;;;;;5070231;28;20047;-69
2022/08/31 05:00:58;;;;;;;3.35;1.67;;;14.90;99.90;;;;;;5040178;28;20103;-69
2022/08/31 05:03:24;;;;;;;3.35;1.75;;;14.80;99.90;;;;;;5060722;28;20033;-69
2022/08/31 05:05:51;;;;;;;5.97;1.92;;;14.80;99.90;;;;;;5062634;28;20124;-69
2022/08/31 05:08:18;;;;;;;2.85;1.60;;;14.80;99.90;;;;;;5063933;28;20116;-69
2022/08/31 05:10:44;;;;;;;4.95;1.70;;;14.80;99.90;;;;;;5047766;28;20110;-68
2022/08/31 05:13:10;;;;;;;2.25;1.70;;;14.80;99.90;;;;;;5052135;28;20049;-68
2022/08/31 05:15:43;;;;;;;4.53;1.80;;;14.80;99.90;;;;;;5067982;28;20051;-69
2022/08/31 05:18:09;;;;;;;2.65;1.63;;;14.80;99.90;;;;;;5059693;28;20503;-69
2022/08/31 05:20:35;;;;;;;3.08;1.58;;;14.80;99.90;;;;;;5070092;28;20041;-69
2022/08/31 05:23:01;;;;;;;2.40;1.48;;;14.80;99.90;;;;;;5056182;28;20121;-69
2022/08/31 05:25:26;;;;;;;3.20;1.50;;;15.10;99.90;;;;;;5075961;28;20583;-69
2022/08/31 05:27:53;;;;;;;3.47;1.80;;;15.20;99.90;;;;;;5074958;28;20036;-69
2022/08/31 05:30:19;;;;;;;3.83;1.60;;;14.90;99.90;;;;;;5070764;28;20049;-69
2022/08/31 05:32:45;;;;;;;8.55;2.00;;;14.90;99.90;;;;;;5050351;28;20040;-69
2022/08/31 05:35:12;;;;;;;3.80;1.55;;;14.90;99.90;;;;;;5062743;28;20080;-69
2022/08/31 05:37:38;;;;;;;5.05;1.80;;;14.90;99.90;;;;;;5061880;28;20056;-69
2022/08/31 05:40:04;;;;;;;2.70;1.55;;;14.90;99.90;;;;;;5057674;28;20061;-69
2022/08/31 05:42:30;;;;;;;4.43;1.65;;;15.00;99.90;;;;;;5053915;28;20440;-70
2022/08/31 05:44:56;;;;;;;8.15;1.80;;;15.00;99.90;;;;;;5055478;28;20052;-69
2022/08/31 05:47:21;;;;;;;3.28;1.80;;;15.00;99.90;;;;;;5056702;28;20128;-69
2022/08/31 05:49:47;;;;;;;3.40;1.52;;;15.10;99.90;;;;;;5073470;28;20154;-69
2022/08/31 05:52:13;;;;;;;3.63;1.60;;;15.00;99.90;;;;;;5061065;28;20412;-69
2022/08/31 05:54:39;;;;;;;3.85;1.75;;;15.00;99.90;;;;;;5069656;28;20045;-69
2022/08/31 05:57:05;;;;;;;5.32;1.83;;;15.70;99.90;;;;;;5067126;28;20116;-69
2022/08/31 05:59:32;;;;;;;3.20;1.50;;;15.10;99.90;;;;;;5053193;28;20072;-69
2022/08/31 06:01:58;;;;;;;3.78;1.70;;;15.10;99.90;;;;;;5055157;28;20041;-69
2022/08/31 06:04:24;;;;;;;2.78;1.67;;;15.20;99.90;;;;;;5063123;28;20464;-69
2022/08/31 06:06:51;;;;;;;2.65;1.65;;;15.40;99.90;;;;;;5073588;28;20041;-69
2022/08/31 06:09:16;;;;;;;2.67;1.52;;;15.10;99.90;;;;;;5075130;28;20139;-69
2022/08/31 06:11:42;;;;;;;3.15;1.65;;;15.70;99.90;;;;;;5074753;28;20111;-69
2022/08/31 06:14:09;;;;;;;3.50;1.85;;;15.30;99.90;;;;;;5073781;28;20143;-69
2022/08/31 06:16:36;;;;;;;2.20;1.50;;;15.90;99.90;;;;;;5054780;28;20040;-69
2022/08/31 06:19:05;;;;;;;3.45;1.70;;;15.40;99.90;;;;;;5058043;28;20122;-70
2022/08/31 06:21:33;;;;;;;2.53;1.42;;;16.00;99.90;;;;;;5056541;28;20033;-69
2022/08/31 06:24:00;;;;;;;4.93;1.70;;;15.50;99.90;;;;;;5056784;28;20048;-69
2022/08/31 06:26:30;;;;;;;9.30;1.60;;;15.60;99.90;;;;;;5036926;28;20033;-69
2022/08/31 06:28:58;;;;;;;3.70;1.40;;;15.60;99.90;;;;;;5054225;28;20366;-69
2022/08/31 06:31:32;;;;;;;4.85;1.60;;;15.70;99.90;;;;;;5054439;28;20044;-68
2022/08/31 06:34:00;;;;;;;3.60;1.45;;;15.80;99.90;;;;;;5052371;28;20049;-69
2022/08/31 06:36:30;;;;;;;1.50;1.35;;;15.90;99.90;;;;;;5043549;28;20115;-70
2022/08/31 06:38:58;;;;;;;3.83;1.50;;;15.90;99.90;;;;;;5012027;28;20102;-70
2022/08/31 06:41:30;;;;;;;3.88;1.70;;;16.20;99.90;;;;;;5053839;28;20047;-70
2022/08/31 06:43:57;;;;;;;2.90;1.58;;;16.00;99.90;;;;;;5052584;28;20041;-68
2022/08/31 06:46:23;;;;;;;3.55;1.50;;;16.20;99.90;;;;;;5056160;28;20404;-68
2022/08/31 06:48:53;;;;;;;3.90;1.63;;;16.20;99.90;;;;;;5053165;28;20036;-70
2022/08/31 06:51:18;;;;;;;2.53;1.55;;;16.30;99.90;;;;;;5052708;28;20052;-70
2022/08/31 06:53:44;;;;;;;3.53;1.35;;;16.30;99.90;;;;;;5052126;28;20036;-70
2022/08/31 06:56:13;;;;;;;2.75;1.30;;;16.50;99.90;;;;;;5053349;28;20467;-70
2022/08/31 06:58:39;;;;;;;2.55;1.30;;;16.60;99.90;;;;;;5061679;28;20094;-70
2022/08/31 07:01:06;;;;;;;2.05;1.35;;;16.60;99.90;;;;;;5071976;28;20036;-70
2022/08/31 07:03:37;;;;;;;4.07;1.63;;;16.70;99.90;;;;;;5073216;28;20089;-70
2022/08/31 07:06:10;;;;;;;2.97;1.55;;;17.20;99.90;;;;;;5073723;28;20041;-70
2022/08/31 07:08:37;;;;;;;1.70;1.40;;;17.00;99.90;;;;;;5055434;28;20043;-70
2022/08/31 07:11:09;;;;;;;2.55;1.50;;;17.20;99.90;;;;;;5073626;28;20473;-70
2022/08/31 07:13:34;;;;;;;2.65;1.42;;;17.20;99.90;;;;;;5078631;28;20127;-70
2022/08/31 07:16:08;;;;;;;2.17;1.23;;;17.40;99.90;;;;;;5051933;28;20123;-70
2022/08/31 07:18:34;;;;;;;5.03;1.30;;;17.60;99.90;;;;;;5053922;28;20431;-70
2022/08/31 07:21:18;;;;;;;1.92;1.30;;;17.80;99.90;;;;;;5053535;28;20083;-70
2022/08/31 07:23:45;;;;;;;2.08;1.40;;;17.90;99.90;;;;;;5052941;28;20053;-70
2022/08/31 07:26:18;;;;;;;1.90;1.30;;;18.00;99.90;;;;;;5055504;28;20041;-70
2022/08/31 07:28:44;;;;;;;1.60;1.20;;;18.10;99.90;;;;;;5049845;28;20045;-70
2022/08/31 07:31:14;;;;;;;5.50;1.33;;;18.30;99.90;;;;;;5050129;28;20522;-70
2022/08/31 07:33:41;;;;;;;4.32;1.17;;;18.30;99.90;;;;;;5072755;28;20040;-68
2022/08/31 07:36:12;;;;;;;4.32;1.17;;;18.40;99.90;;;;;;5073283;28;20449;-68
2022/08/31 07:44:12;;;;;;;2.95;1.30;;;18.60;99.90;;;;;;5057778;28;20045;-69
2022/08/31 07:46:38;;;;;;;2.05;1.10;;;18.60;99.90;;;;;;5065095;28;20036;-69
2022/08/31 07:49:11;;;;;;;2.63;1.10;;;18.60;99.90;;;;;;5053283;28;20400;-69
2022/08/31 07:51:42;;;;;;;1.60;1.02;;;18.80;99.90;;;;;;5034512;28;20134;-69
2022/08/31 07:54:09;;;;;;;3.22;1.10;;;18.70;99.90;;;;;;5052996;28;20457;-69
2022/08/31 07:56:36;;;;;;;1.48;1.05;;;19.30;99.90;;;;;;5060486;28;20052;-69
2022/08/31 07:59:06;;;;;;;3.55;1.30;;;18.90;99.90;;;;;;5035401;28;20041;-69
2022/08/31 08:01:33;;;;;;;2.40;1.30;;;19.00;99.90;;;;;;5072082;28;20080;-69
2022/08/31 08:04:01;;;;;;;2.67;1.30;;;19.10;99.90;;;;;;5072591;28;20123;-69
2022/08/31 08:06:27;;;;;;;2.35;1.40;;;19.30;99.90;;;;;;5054102;28;20048;-69
2022/08/31 08:08:54;;;;;;;1.90;1.13;;;19.20;99.90;;;;;;5088361;28;20060;-69
2022/08/31 08:11:20;;;;;;;3.38;1.20;;;19.30;99.90;;;;;;5041589;28;20041;-69
2022/08/31 08:13:47;;;;;;;7.18;1.55;;;19.30;99.90;;;;;;5067247;28;20132;-69
2022/08/31 08:16:14;;;;;;;3.95;1.20;;;19.40;99.90;;;;;;5050889;28;20045;-70
2022/08/31 08:18:39;;;;;;;2.00;1.30;;;19.50;99.90;;;;;;5048579;28;20041;-69
2022/08/31 08:21:05;;;;;;;2.08;1.23;;;19.70;99.90;;;;;;5052584;28;20041;-69
2022/08/31 08:23:31;;;;;;;2.47;1.40;;;19.70;99.90;;;;;;5055770;28;20037;-69
2022/08/31 08:25:59;;;;;;;2.70;1.40;;;19.90;99.90;;;;;;5057720;28;20034;-68
2022/08/31 08:28:27;;;;;;;4.85;1.30;;;20.00;99.90;;;;;;5015292;28;20152;-68
2022/08/31 08:30:55;;;;;;;2.17;1.20;;;20.10;99.90;;;;;;5065324;28;20499;-69
2022/08/31 08:33:23;;;;;;;3.00;1.15;;;20.20;99.90;;;;;;5077370;28;20125;-68
2022/08/31 08:35:57;;;;;;;2.28;1.20;;;20.30;99.90;;;;;;5057483;28;20048;-68
2022/08/31 08:38:29;;;;;;;2.08;1.20;;;20.50;99.90;;;;;;5051042;28;20127;-68
2022/08/31 08:40:56;;;;;;;2.15;1.30;;;20.60;99.90;;;;;;5055270;28;20059;-69
2022/08/31 08:43:31;;;;;;;2.85;1.20;;;20.80;99.90;;;;;;5066421;28;20037;-68
2022/08/31 08:46:00;;;;;;;2.70;1.25;;;21.00;99.90;;;;;;5047375;28;20545;-68
2022/08/31 08:48:29;;;;;;;1.88;1.13;;;21.10;99.90;;;;;;5063815;28;20037;-68
2022/08/31 08:50:56;;;;;;;4.93;1.30;;;21.30;99.90;;;;;;5052917;28;20048;-68
2022/08/31 08:53:24;;;;;;;2.05;1.27;;;21.70;99.90;;;;;;5058892;28;20055;-68
2022/08/31 08:55:50;;;;;;;6.00;1.20;;;21.70;99.90;;;;;;5037766;28;20127;-69
2022/08/31 08:58:18;;;;;;;2.13;1.20;;;21.80;99.90;;;;;;5056725;28;20252;-69
2022/08/31 09:00:50;;;;;;;4.35;1.40;;;22.00;99.90;;;;;;5054559;28;20045;-69
2022/08/31 09:03:43;;;;;;;2.95;1.20;;;22.10;99.90;;;;;;5055309;28;20506;-68
2022/08/31 09:06:18;;;;;;;2.90;1.23;;;22.30;99.90;;;;;;5053840;28;20136;-68
2022/08/31 09:09:07;;;;;;;2.72;1.20;;;22.50;99.90;;;;;;5063302;28;20202;-68
2022/08/31 09:12:11;;;;;;;3.67;1.25;;;22.70;99.90;;;;;;5061728;28;20060;-68
2022/08/31 09:14:48;;;;;;;4.47;1.40;;;22.80;99.80;;;;;;5018362;28;20048;-68
2022/08/31 09:17:45;;;;;;;3.70;1.20;;;23.00;99.80;;;;;;5027684;28;20049;-68
2022/08/31 09:20:12;;;;;;;1.45;1.23;;;23.40;99.20;;;;;;5036266;28;20079;-68
2022/08/31 09:22:49;;;;;;;2.17;1.00;;;23.60;98.60;;;;;;5046838;28;20389;-69
2022/08/31 09:25:28;;;;;;;3.13;1.13;;;23.90;98.30;;;;;;5044606;28;20045;-69
2022/08/31 09:27:57;;;;;;;3.40;1.10;;;24.20;97.50;;;;;;5029120;28;20044;-69
2022/08/31 09:30:37;;;;;;;1.33;1.00;;;24.50;97.30;;;;;;5049879;28;20083;-69
2022/08/31 09:33:03;;;;;;;2.83;1.10;;;24.80;96.70;;;;;;5040478;28;20041;-69
2022/08/31 09:35:41;;;;;;;4.63;1.30;;;25.10;96.30;;;;;;5048520;28;20139;-70
2022/08/31 09:38:12;;;;;;;4.53;1.20;;;25.60;96.00;;;;;;5043167;28;20042;-69
2022/08/31 09:40:38;;;;;;;3.10;1.20;;;26.00;95.50;;;;;;5051666;28;20033;-70
2022/08/31 09:43:22;;;;;;;2.60;1.13;;;26.30;95.10;;;;;;5010129;28;20479;-70
2022/08/31 09:46:01;;;;;;;1.85;1.00;;;26.70;94.70;;;;;;5028126;28;20620;-69
2022/08/31 09:48:54;;;;;;;2.03;1.00;;;26.80;93.40;;;;;;5034862;28;20037;-70
2022/08/31 09:51:26;;;;;;;1.23;1.02;;;27.10;93.10;;;;;;5031902;28;20087;-70
2022/08/31 09:57:03;;;;;;;3.35;1.20;;;27.50;92.50;;;;;;5024198;28;20389;-79
2022/08/31 09:59:38;;;;;;;2.10;1.05;;;27.60;92.30;;;;;;5048625;28;20056;-77
2022/08/31 10:02:30;;;;;;;5.95;1.08;;;27.80;92.40;;;;;;5047811;28;20116;-78
2022/08/31 10:05:16;;;;;;;1.42;1.00;;;28.20;91.60;;;;;;5049584;28;20476;-78
2022/08/31 10:07:54;;;;;;;1.65;0.98;;;28.40;90.40;;;;;;5031448;28;20037;-78
2022/08/31 10:10:23;;;;;;;1.90;1.10;;;28.40;90.40;;;;;;5047226;28;20048;-78
2022/08/31 10:13:12;;;;;;;3.38;1.30;;;28.20;89.40;;;;;;5032468;28;20458;-70
2022/08/31 10:15:47;;;;;;;1.33;1.00;;;28.10;90.40;;;;;;5043446;28;20048;-70
2022/08/31 10:18:30;;;;;;;2.85;1.30;;;28.00;90.50;;;;;;5018765;28;20053;-70
2022/08/31 10:21:06;;;;;;;5.30;1.30;;;27.80;89.90;;;;;;5052043;28;20040;-70
2022/08/31 10:23:53;;;;;;;3.28;1.10;;;27.30;90.10;;;;;;5048489;28;20102;-70
2022/08/31 10:26:34;;;;;;;3.63;1.20;;;26.90;90.20;;;;;;5033990;28;20157;-70
2022/08/31 10:29:12;;;;;;;1.75;1.10;;;26.60;90.70;;;;;;5019406;28;20433;-71
2022/08/31 10:31:45;;;;;;;3.53;1.00;;;26.20;91.10;;;;;;5038178;28;20037;-69
2022/08/31 10:37:20;;;;;;;2.63;1.13;;;26.20;91.50;;;;;;5052426;28;20120;-70
2022/08/31 10:39:49;;;;;;;1.55;1.00;;;26.50;91.20;;;;;;5023503;28;20044;-70
2022/08/31 10:42:20;;;;;;;1.90;1.20;;;26.90;90.50;;;;;;5039463;28;20155;-70
2022/08/31 10:44:58;;;;;;;2.55;1.00;;;27.20;90.10;;;;;;5083751;28;20430;-68
2022/08/31 10:47:27;;;;;;;2.47;0.90;;;27.70;87.10;;;;;;5074034;28;20040;-69
2022/08/31 10:49:57;;;;;;;3.92;1.05;;;28.00;85.90;;;;;;5065669;28;20052;-69
2022/08/31 10:52:31;;;;;;;3.05;1.00;;;28.50;86.40;;;;;;5063554;28;20067;-68
2022/08/31 10:55:11;;;;;;;1.77;1.00;;;28.90;86.20;;;;;;5063142;28;20520;-69
2022/08/31 10:58:02;;;;;;;2.92;1.25;;;29.50;85.80;;;;;;5074510;28;20044;-69
2022/08/31 11:00:47;;;;;;;1.70;1.10;;;29.60;84.20;;;;;;5031254;28;20150;-69
2022/08/31 11:03:32;;;;;;;2.50;0.90;;;29.50;84.60;;;;;;5016446;28;20041;-69
2022/08/31 11:06:24;;;;;;;2.27;1.00;;;29.40;82.80;;;;;;5034085;28;20090;-69
2022/08/31 11:08:56;;;;;;;3.28;0.90;;;29.20;82.70;;;;;;5032826;28;20053;-69
2022/08/31 11:11:46;;;;;;;3.28;1.05;;;29.10;82.70;;;;;;5033265;28;20383;-69
2022/08/31 11:14:31;;;;;;;3.35;1.00;;;29.30;82.70;;;;;;5049098;28;20049;-69
2022/08/31 11:17:23;;;;;;;2.22;1.00;;;29.40;82.10;;;;;;5041059;28;20456;-69
2022/08/31 11:20:08;;;;;;;2.05;0.90;;;29.30;82.20;;;;;;5026475;28;20438;-69
2022/08/31 11:22:52;;;;;;;2.40;0.95;;;29.60;81.40;;;;;;5036145;28;20044;-69
2022/08/31 11:25:24;;;;;;;1.67;1.00;;;29.70;80.90;;;;;;5054043;28;20060;-69
2022/08/31 11:27:59;;;;;;;1.90;0.80;;;30.10;80.60;;;;;;5053693;28;20124;-69
2022/08/31 11:30:28;;;;;;;2.28;1.00;;;30.20;79.90;;;;;;5053888;28;20091;-69
2022/08/31 11:33:06;;;;;;;1.02;0.70;;;30.40;78.20;;;;;;5037991;28;20087;-69
2022/08/31 11:36:05;;;;;;;4.00;1.10;;;30.40;77.10;;;;;;5034130;28;20063;-69
2022/08/31 11:38:51;;;;;;;3.15;0.80;;;30.10;76.80;;;;;;5033427;28;20485;-67
2022/08/31 11:41:46;;;;;;;1.58;0.80;;;29.90;76.20;;;;;;5031136;28;20513;-67
2022/08/31 11:44:30;;;;;;;1.30;0.98;;;29.70;76.40;;;;;;5033090;28;20465;-68
2022/08/31 11:47:01;;;;;;;1.40;0.88;;;29.40;76.00;;;;;;5032981;28;20270;-68
2022/08/31 11:49:44;;;;;;;3.08;0.88;;;29.30;76.80;;;;;;5032348;28;20045;-67
2022/08/31 11:52:13;;;;;;;2.47;0.98;;;29.40;76.90;;;;;;5032916;28;20049;-68
2022/08/31 11:54:41;;;;;;;0.90;0.70;;;29.40;77.10;;;;;;5031562;28;20084;-68
2022/08/31 11:57:14;;;;;;;2.00;0.90;;;29.60;76.80;;;;;;5032074;28;20061;-68
2022/08/31 11:59:45;;;;;;;2.63;0.90;;;30.10;75.60;;;;;;5032369;28;20049;-69
2022/08/31 12:02:20;;;;;;;2.15;0.90;;;30.60;74.40;;;;;;5033111;28;20081;-69
2022/08/31 12:04:56;;;;;;;3.10;1.00;;;31.20;74.10;;;;;;5032961;28;20045;-69
2022/08/31 12:07:33;;;;;;;1.73;0.90;;;32.10;73.50;;;;;;5032048;28;20042;-68
2022/08/31 12:10:51;;;;;;;2.45;1.00;;;34.30;72.20;;;;;;5032771;28;20168;-69
2022/08/31 12:13:36;;;;;;;1.67;0.90;;;36.70;68.50;;;;;;4990841;28;20054;-68
2022/08/31 12:16:41;;;;;;;2.88;0.80;;;38.80;66.00;;;;;;5029704;28;20387;-69
2022/08/31 12:19:58;;;;;;;3.25;1.02;;;40.10;63.50;;;;;;4979238;28;20420;-69
2022/08/31 12:25:40;;;;;;;2.55;1.00;;;42.50;58.30;;;;;;5032894;28;20045;-68
2022/08/31 12:28:22;;;;;;;2.15;0.90;;;42.70;55.60;;;;;;5010980;28;20095;-68
2022/08/31 12:30:53;;;;;;;1.52;0.80;;;42.60;54.10;;;;;;5032710;28;20350;-68
2022/08/31 12:33:26;;;;;;;1.65;0.90;;;42.80;54.00;;;;;;5032684;28;20045;-68
2022/08/31 12:35:55;;;;;;;3.80;1.20;;;43.10;52.90;;;;;;5032594;28;20041;-68
2022/08/31 12:38:25;;;;;;;1.27;0.80;;;43.50;52.30;;;;;;5032793;28;20084;-68
2022/08/31 12:40:56;;;;;;;1.17;0.80;;;43.50;52.40;;;;;;5014542;28;20072;-70
2022/08/31 12:43:47;;;;;;;4.78;0.90;;;43.80;50.60;;;;;;5030746;28;20132;-68
2022/08/31 12:46:53;;;;;;;4.30;0.80;;;43.30;50.10;;;;;;5031152;28;20037;-68
2022/08/31 12:49:33;;;;;;;1.60;0.80;;;41.30;50.60;;;;;;5032611;28;20053;-68
2022/08/31 12:52:14;;;;;;;1.77;0.80;;;38.90;51.40;;;;;;5014441;28;20046;-68
2022/08/31 12:54:45;;;;;;;1.75;1.00;;;36.70;52.40;;;;;;5031861;28;20045;-68
2022/08/31 12:57:34;;;;;;;19.63;2.15;;;34.90;53.80;;;;;;5032251;28;20109;-68
2022/08/31 13:00:09;;;;;;;2.25;0.77;;;33.60;54.50;;;;;;5032447;28;20444;-68
2022/08/31 13:02:42;;;;;;;2.88;0.98;;;32.70;55.60;;;;;;5032228;28;20450;-68
2022/08/31 13:05:35;;;;;;;1.60;1.02;;;32.00;56.20;;;;;;5032075;28;20128;-68
2022/08/31 13:08:21;;;;;;;2.35;1.00;;;31.40;56.40;;;;;;5046600;28;20060;-68
2022/08/31 13:10:47;;;;;;;2.28;0.88;;;30.90;56.90;;;;;;5034214;28;20125;-68
2022/08/31 13:13:27;;;;;;;2.17;1.00;;;30.40;57.70;;;;;;5051846;28;20043;-68
2022/08/31 13:16:03;;;;;;;3.80;1.10;;;30.10;58.30;;;;;;5051714;28;20556;-68
2022/08/31 13:18:29;;;;;;;2.55;1.10;;;29.80;60.10;;;;;;5051856;28;20493;-68
2022/08/31 13:21:02;;;;;;;1.85;1.00;;;29.80;60.30;;;;;;5051943;28;20040;-68
2022/08/31 13:23:41;;;;;;;1.50;1.10;;;29.70;59.60;;;;;;5033645;28;20064;-68
2022/08/31 13:26:20;;;;;;;2.13;1.00;;;29.70;59.80;;;;;;5050654;28;20128;-68
2022/08/31 13:29:02;;;;;;;2.03;1.00;;;29.50;60.30;;;;;;5051625;28;20477;-68